Terminal Aerodrome Forecast
Issued by NWS Bismarck, ND

Home | Current Version | Previous Version | Graphics & Text | Print | Product List | Glossary On
Versions: 1 2 3 4 5 6 7 8 9 10 11 12
000
FTUS43 KBIS 261127
TAFBIS
TAF
KBIS 261127Z 2612/2712 VRB04KT P6SM SCT110 BKN180
     FM261600 20009KT P6SM SCT070 BKN120
     FM261900 20012KT P6SM SCT060 BKN080 OVC100
     FM270000 17011KT P6SM BKN060 OVC080
     FM270900 VRB03KT P6SM SCT080=

USA.gov is the U.S. government's official web portal to all federal, state and local government web resources and services.